Aviation Digital Data Service (ADDS)

Output produced by METARs form (1329 UTC 10 July 2020)
found at http://www.aviationweather.gov/metar/data/
 
KSTC 101253Z 33006KT 10SM CLR 20/16 A2996 RMK AO2 SLP150 T02000156
KSTC 101120Z 1012/1112 30007KT P6SM SKC 
     FM101800 28012G18KT P6SM FEW060 
     FM110100 VRB03KT P6SM BKN110
       
KBRD 101253Z AUTO 29006KT 10SM CLR 21/15 A2997 RMK AO2 SLP142 T02110150 $
KBRD 101130Z 1012/1112 31005KT P6SM SKC